Main page
METAR-TAF:

METAR-TAF

Airports :

Warsaw Chopin Airport

Warsaw, Poland

latitude: 52-10N, longitude: 020-58E, elevation: 106 m

Current weather observation

The report was made 16 minutes ago, at 23:30 UTC
Wind 5 kt from the East
Temperature 16°C
Humidity 63%
Pressure 1020 hPa
Visibility 10 km or more
no clouds below 1500 m and no cumulonimbus

METAR: EPWA 162330Z 10005KT CAVOK 16/09 Q1020 NOSIG

Time: 01:46 (23:46 UTC)

Forecast

The report was made 16 minutes ago, at 23:30 UTC
Forecast valid from 17 at 00 UTC to 17 at 24 UTC
Wind 6 kt from the East/Southeast
Visibility 10 km or more
no clouds below 1500 m and no cumulonimbus

TAF: EPWA 162330Z 1700/1724 12006KT CAVOK

Weather observations and forecasts of more than 4000 airports (METAR and TAF reports).

The available stations are represented by yellow and red dots on the map.

Hover mouse over dot to see the name of the station.

Then click to see weather observations and forecasts.

To change the map : click on the green buttons with a black cross to zoom in, on the green button with a dash to zoom out, or on the green arrows for adjacent maps.


METAR-TAF: